sensor_id;sensor_type;location;lat;lon;timestamp;P1;durP1;ratioP1;P2;durP2;ratioP2
58758;SDS011;46777;47.482;19.054;2023-02-15T00:01:05;37.00;;;31.75;;
58758;SDS011;46777;47.482;19.054;2023-02-15T00:03:49;32.73;;;28.57;;
58758;SDS011;46777;47.482;19.054;2023-02-15T00:06:34;37.28;;;30.63;;
58758;SDS011;46777;47.482;19.054;2023-02-15T00:09:19;34.92;;;29.23;;
58758;SDS011;46777;47.482;19.054;2023-02-15T00:12:03;35.28;;;30.00;;
58758;SDS011;46777;47.482;19.054;2023-02-15T00:14:47;36.30;;;30.10;;
58758;SDS011;46777;47.482;19.054;2023-02-15T00:17:31;34.92;;;29.83;;
58758;SDS011;46777;47.482;19.054;2023-02-15T00:20:16;33.95;;;29.23;;
58758;SDS011;46777;47.482;19.054;2023-02-15T00:23:00;33.58;;;28.40;;
58758;SDS011;46777;47.482;19.054;2023-02-15T00:25:44;32.08;;;27.83;;
58758;SDS011;46777;47.482;19.054;2023-02-15T00:28:29;33.10;;;27.52;;
58758;SDS011;46777;47.482;19.054;2023-02-15T00:31:14;35.97;;;28.83;;
58758;SDS011;46777;47.482;19.054;2023-02-15T00:34:05;31.33;;;27.17;;
58758;SDS011;46777;47.482;19.054;2023-02-15T00:36:50;30.85;;;27.38;;
58758;SDS011;46777;47.482;19.054;2023-02-15T00:39:35;28.10;;;24.98;;
58758;SDS011;46777;47.482;19.054;2023-02-15T00:42:19;25.60;;;22.77;;
58758;SDS011;46777;47.482;19.054;2023-02-15T00:45:03;27.88;;;24.88;;
58758;SDS011;46777;47.482;19.054;2023-02-15T00:47:48;30.95;;;25.17;;
58758;SDS011;46777;47.482;19.054;2023-02-15T00:50:32;27.73;;;24.83;;
58758;SDS011;46777;47.482;19.054;2023-02-15T00:53:16;29.23;;;25.20;;
58758;SDS011;46777;47.482;19.054;2023-02-15T00:56:01;28.55;;;25.50;;
58758;SDS011;46777;47.482;19.054;2023-02-15T00:58:45;30.42;;;25.15;;
58758;SDS011;46777;47.482;19.054;2023-02-15T01:01:29;28.23;;;25.15;;
58758;SDS011;46777;47.482;19.054;2023-02-15T01:04:14;27.23;;;24.23;;
58758;SDS011;46777;47.482;19.054;2023-02-15T01:06:58;27.08;;;24.27;;
58758;SDS011;46777;47.482;19.054;2023-02-15T01:09:42;27.50;;;24.48;;
58758;SDS011;46777;47.482;19.054;2023-02-15T01:12:26;29.00;;;25.52;;
58758;SDS011;46777;47.482;19.054;2023-02-15T01:15:11;28.13;;;25.13;;
58758;SDS011;46777;47.482;19.054;2023-02-15T01:17:55;29.05;;;24.50;;
58758;SDS011;46777;47.482;19.054;2023-02-15T01:20:39;32.47;;;26.05;;
58758;SDS011;46777;47.482;19.054;2023-02-15T01:23:25;29.50;;;25.50;;
58758;SDS011;46777;47.482;19.054;2023-02-15T01:26:09;28.77;;;25.38;;
58758;SDS011;46777;47.482;19.054;2023-02-15T01:28:54;28.02;;;24.80;;
58758;SDS011;46777;47.482;19.054;2023-02-15T01:31:38;30.80;;;27.30;;
58758;SDS011;46777;47.482;19.054;2023-02-15T01:34:23;29.90;;;26.25;;
58758;SDS011;46777;47.482;19.054;2023-02-15T01:37:07;29.95;;;25.10;;
58758;SDS011;46777;47.482;19.054;2023-02-15T01:39:51;29.80;;;25.55;;
58758;SDS011;46777;47.482;19.054;2023-02-15T01:42:35;25.67;;;22.30;;
58758;SDS011;46777;47.482;19.054;2023-02-15T01:45:24;27.67;;;22.95;;
58758;SDS011;46777;47.482;19.054;2023-02-15T01:51:00;26.92;;;23.52;;
58758;SDS011;46777;47.482;19.054;2023-02-15T01:53:57;25.20;;;22.52;;
58758;SDS011;46777;47.482;19.054;2023-02-15T01:56:43;24.63;;;22.02;;
58758;SDS011;46777;47.482;19.054;2023-02-15T01:59:28;25.05;;;22.45;;
58758;SDS011;46777;47.482;19.054;2023-02-15T02:02:13;23.48;;;20.60;;
58758;SDS011;46777;47.482;19.054;2023-02-15T02:04:58;24.92;;;21.73;;
58758;SDS011;46777;47.482;19.054;2023-02-15T02:07:43;23.83;;;21.25;;
58758;SDS011;46777;47.482;19.054;2023-02-15T02:10:28;22.80;;;20.20;;
58758;SDS011;46777;47.482;19.054;2023-02-15T02:13:12;21.42;;;18.88;;
58758;SDS011;46777;47.482;19.054;2023-02-15T02:16:08;21.60;;;19.30;;
58758;SDS011;46777;47.482;19.054;2023-02-15T02:19:02;22.17;;;19.67;;
58758;SDS011;46777;47.482;19.054;2023-02-15T02:22:03;23.30;;;20.83;;
58758;SDS011;46777;47.482;19.054;2023-02-15T02:27:47;26.25;;;23.45;;
58758;SDS011;46777;47.482;19.054;2023-02-15T02:30:35;28.05;;;24.55;;
58758;SDS011;46777;47.482;19.054;2023-02-15T02:33:28;32.33;;;25.15;;
58758;SDS011;46777;47.482;19.054;2023-02-15T02:42:15;32.33;;;28.52;;
58758;SDS011;46777;47.482;19.054;2023-02-15T02:45:07;33.42;;;29.90;;
58758;SDS011;46777;47.482;19.054;2023-02-15T02:47:53;33.42;;;29.77;;
58758;SDS011;46777;47.482;19.054;2023-02-15T02:50:39;36.90;;;31.45;;
58758;SDS011;46777;47.482;19.054;2023-02-15T02:53:23;37.65;;;32.63;;
58758;SDS011;46777;47.482;19.054;2023-02-15T02:56:21;36.88;;;32.45;;
58758;SDS011;46777;47.482;19.054;2023-02-15T02:59:10;38.03;;;31.67;;
58758;SDS011;46777;47.482;19.054;2023-02-15T03:01:57;38.78;;;32.47;;
58758;SDS011;46777;47.482;19.054;2023-02-15T03:04:49;37.95;;;33.85;;
58758;SDS011;46777;47.482;19.054;2023-02-15T03:07:42;37.67;;;32.97;;
58758;SDS011;46777;47.482;19.054;2023-02-15T03:10:27;39.22;;;33.75;;
58758;SDS011;46777;47.482;19.054;2023-02-15T03:13:13;38.58;;;33.47;;
58758;SDS011;46777;47.482;19.054;2023-02-15T03:15:58;38.88;;;34.38;;
58758;SDS011;46777;47.482;19.054;2023-02-15T03:19:10;37.38;;;32.20;;
58758;SDS011;46777;47.482;19.054;2023-02-15T03:21:58;35.25;;;31.38;;
58758;SDS011;46777;47.482;19.054;2023-02-15T03:24:56;36.22;;;32.28;;
58758;SDS011;46777;47.482;19.054;2023-02-15T03:27:44;35.90;;;31.45;;
58758;SDS011;46777;47.482;19.054;2023-02-15T03:30:28;35.67;;;31.70;;
58758;SDS011;46777;47.482;19.054;2023-02-15T03:33:13;35.90;;;32.10;;
58758;SDS011;46777;47.482;19.054;2023-02-15T03:36:01;35.22;;;31.38;;
58758;SDS011;46777;47.482;19.054;2023-02-15T03:38:54;36.63;;;32.38;;
58758;SDS011;46777;47.482;19.054;2023-02-15T03:41:48;34.45;;;30.73;;
58758;SDS011;46777;47.482;19.054;2023-02-15T03:44:36;37.97;;;31.48;;
58758;SDS011;46777;47.482;19.054;2023-02-15T03:47:23;35.10;;;29.70;;
58758;SDS011;46777;47.482;19.054;2023-02-15T03:50:11;33.63;;;29.65;;
58758;SDS011;46777;47.482;19.054;2023-02-15T03:53:17;34.22;;;29.98;;
58758;SDS011;46777;47.482;19.054;2023-02-15T03:56:04;32.97;;;29.20;;
58758;SDS011;46777;47.482;19.054;2023-02-15T03:58:48;34.30;;;30.45;;
58758;SDS011;46777;47.482;19.054;2023-02-15T04:02:00;32.53;;;29.02;;
58758;SDS011;46777;47.482;19.054;2023-02-15T04:04:48;33.50;;;29.02;;
58758;SDS011;46777;47.482;19.054;2023-02-15T04:07:33;33.60;;;28.85;;
58758;SDS011;46777;47.482;19.054;2023-02-15T04:10:17;35.83;;;31.23;;
58758;SDS011;46777;47.482;19.054;2023-02-15T04:13:21;34.47;;;29.73;;
58758;SDS011;46777;47.482;19.054;2023-02-15T04:16:06;33.95;;;29.65;;
58758;SDS011;46777;47.482;19.054;2023-02-15T04:18:50;34.83;;;30.60;;
58758;SDS011;46777;47.482;19.054;2023-02-15T04:21:53;34.90;;;29.98;;
58758;SDS011;46777;47.482;19.054;2023-02-15T04:24:56;33.17;;;29.52;;
58758;SDS011;46777;47.482;19.054;2023-02-15T04:27:59;36.53;;;32.47;;
58758;SDS011;46777;47.482;19.054;2023-02-15T04:30:43;34.90;;;30.45;;
58758;SDS011;46777;47.482;19.054;2023-02-15T04:33:27;34.45;;;30.75;;
58758;SDS011;46777;47.482;19.054;2023-02-15T04:36:11;35.92;;;31.65;;
58758;SDS011;46777;47.482;19.054;2023-02-15T04:38:56;34.45;;;30.35;;
58758;SDS011;46777;47.482;19.054;2023-02-15T04:41:40;33.90;;;29.90;;
58758;SDS011;46777;47.482;19.054;2023-02-15T04:44:24;32.67;;;28.95;;
58758;SDS011;46777;47.482;19.054;2023-02-15T04:47:08;34.53;;;30.70;;
58758;SDS011;46777;47.482;19.054;2023-02-15T04:49:53;33.15;;;29.33;;
58758;SDS011;46777;47.482;19.054;2023-02-15T04:52:37;31.40;;;28.00;;
58758;SDS011;46777;47.482;19.054;2023-02-15T04:55:22;33.05;;;29.52;;
58758;SDS011;46777;47.482;19.054;2023-02-15T04:58:06;34.25;;;30.40;;
58758;SDS011;46777;47.482;19.054;2023-02-15T05:00:50;32.72;;;28.85;;
58758;SDS011;46777;47.482;19.054;2023-02-15T05:03:35;31.85;;;28.45;;
58758;SDS011;46777;47.482;19.054;2023-02-15T05:06:19;32.42;;;29.02;;
58758;SDS011;46777;47.482;19.054;2023-02-15T05:09:03;32.15;;;28.63;;
58758;SDS011;46777;47.482;19.054;2023-02-15T05:11:47;33.05;;;27.30;;
58758;SDS011;46777;47.482;19.054;2023-02-15T05:14:31;34.03;;;29.42;;
58758;SDS011;46777;47.482;19.054;2023-02-15T05:17:15;29.80;;;26.55;;
58758;SDS011;46777;47.482;19.054;2023-02-15T05:20:00;29.30;;;26.23;;
58758;SDS011;46777;47.482;19.054;2023-02-15T05:22:44;27.38;;;24.48;;
58758;SDS011;46777;47.482;19.054;2023-02-15T05:25:28;27.77;;;24.77;;
58758;SDS011;46777;47.482;19.054;2023-02-15T05:28:31;28.02;;;25.02;;
58758;SDS011;46777;47.482;19.054;2023-02-15T05:31:18;27.70;;;23.95;;
58758;SDS011;46777;47.482;19.054;2023-02-15T05:34:03;25.90;;;23.10;;
58758;SDS011;46777;47.482;19.054;2023-02-15T05:36:47;29.92;;;26.35;;
58758;SDS011;46777;47.482;19.054;2023-02-15T05:39:31;30.88;;;27.58;;
58758;SDS011;46777;47.482;19.054;2023-02-15T05:42:15;32.55;;;29.13;;
58758;SDS011;46777;47.482;19.054;2023-02-15T05:45:00;31.75;;;27.38;;
58758;SDS011;46777;47.482;19.054;2023-02-15T05:47:44;29.75;;;26.55;;
58758;SDS011;46777;47.482;19.054;2023-02-15T05:50:28;30.95;;;27.55;;
58758;SDS011;46777;47.482;19.054;2023-02-15T05:53:13;32.40;;;27.98;;
58758;SDS011;46777;47.482;19.054;2023-02-15T05:55:57;34.45;;;28.95;;
58758;SDS011;46777;47.482;19.054;2023-02-15T05:58:46;33.55;;;29.33;;
58758;SDS011;46777;47.482;19.054;2023-02-15T06:01:30;35.03;;;30.05;;
58758;SDS011;46777;47.482;19.054;2023-02-15T06:04:14;35.13;;;31.27;;
58758;SDS011;46777;47.482;19.054;2023-02-15T06:06:58;37.08;;;31.80;;
58758;SDS011;46777;47.482;19.054;2023-02-15T06:09:42;35.97;;;31.83;;
58758;SDS011;46777;47.482;19.054;2023-02-15T06:12:26;36.95;;;32.13;;
58758;SDS011;46777;47.482;19.054;2023-02-15T06:15:11;37.90;;;33.63;;
58758;SDS011;46777;47.482;19.054;2023-02-15T06:17:55;36.78;;;32.80;;
58758;SDS011;46777;47.482;19.054;2023-02-15T06:20:39;37.38;;;30.85;;
58758;SDS011;46777;47.482;19.054;2023-02-15T06:23:23;34.20;;;30.30;;
58758;SDS011;46777;47.482;19.054;2023-02-15T06:26:08;34.60;;;30.90;;
58758;SDS011;46777;47.482;19.054;2023-02-15T06:28:52;36.10;;;31.50;;
58758;SDS011;46777;47.482;19.054;2023-02-15T06:31:36;34.70;;;30.63;;
58758;SDS011;46777;47.482;19.054;2023-02-15T06:34:20;36.42;;;32.20;;
58758;SDS011;46777;47.482;19.054;2023-02-15T06:37:04;36.22;;;31.50;;
58758;SDS011;46777;47.482;19.054;2023-02-15T06:39:48;36.20;;;31.92;;
58758;SDS011;46777;47.482;19.054;2023-02-15T06:42:33;36.60;;;31.60;;
58758;SDS011;46777;47.482;19.054;2023-02-15T06:45:17;35.30;;;31.40;;
58758;SDS011;46777;47.482;19.054;2023-02-15T06:48:01;35.42;;;30.88;;
58758;SDS011;46777;47.482;19.054;2023-02-15T06:50:45;34.47;;;30.55;;
58758;SDS011;46777;47.482;19.054;2023-02-15T06:53:30;37.33;;;30.80;;
58758;SDS011;46777;47.482;19.054;2023-02-15T06:56:14;35.88;;;31.05;;
58758;SDS011;46777;47.482;19.054;2023-02-15T06:58:58;36.20;;;30.08;;
58758;SDS011;46777;47.482;19.054;2023-02-15T07:01:43;34.92;;;30.83;;
58758;SDS011;46777;47.482;19.054;2023-02-15T07:04:27;34.50;;;29.25;;
58758;SDS011;46777;47.482;19.054;2023-02-15T07:07:13;32.88;;;29.15;;
58758;SDS011;46777;47.482;19.054;2023-02-15T07:09:57;35.83;;;30.58;;
58758;SDS011;46777;47.482;19.054;2023-02-15T07:12:42;34.60;;;30.13;;
58758;SDS011;46777;47.482;19.054;2023-02-15T07:15:26;35.05;;;31.25;;
58758;SDS011;46777;47.482;19.054;2023-02-15T07:18:11;35.65;;;31.25;;
58758;SDS011;46777;47.482;19.054;2023-02-15T07:20:55;35.53;;;29.73;;
58758;SDS011;46777;47.482;19.054;2023-02-15T07:23:39;34.80;;;30.90;;
58758;SDS011;46777;47.482;19.054;2023-02-15T07:26:24;34.67;;;30.95;;
58758;SDS011;46777;47.482;19.054;2023-02-15T07:29:08;34.95;;;30.65;;
58758;SDS011;46777;47.482;19.054;2023-02-15T07:31:52;34.88;;;30.48;;
58758;SDS011;46777;47.482;19.054;2023-02-15T07:34:36;35.83;;;31.80;;
58758;SDS011;46777;47.482;19.054;2023-02-15T07:37:20;34.53;;;30.52;;
58758;SDS011;46777;47.482;19.054;2023-02-15T07:40:05;35.08;;;31.27;;
58758;SDS011;46777;47.482;19.054;2023-02-15T07:42:49;35.78;;;31.90;;
58758;SDS011;46777;47.482;19.054;2023-02-15T07:45:36;40.97;;;33.22;;
58758;SDS011;46777;47.482;19.054;2023-02-15T07:48:20;39.47;;;31.85;;
58758;SDS011;46777;47.482;19.054;2023-02-15T07:51:06;36.05;;;31.58;;
58758;SDS011;46777;47.482;19.054;2023-02-15T07:53:50;35.38;;;31.10;;
58758;SDS011;46777;47.482;19.054;2023-02-15T07:56:35;35.72;;;31.15;;
58758;SDS011;46777;47.482;19.054;2023-02-15T07:59:20;39.90;;;33.47;;
58758;SDS011;46777;47.482;19.054;2023-02-15T08:02:05;35.58;;;31.75;;
58758;SDS011;46777;47.482;19.054;2023-02-15T08:05:00;36.00;;;31.58;;
58758;SDS011;46777;47.482;19.054;2023-02-15T08:07:45;34.95;;;30.80;;
58758;SDS011;46777;47.482;19.054;2023-02-15T08:10:29;35.70;;;31.55;;
58758;SDS011;46777;47.482;19.054;2023-02-15T08:13:33;39.42;;;33.47;;
58758;SDS011;46777;47.482;19.054;2023-02-15T08:16:17;39.35;;;32.85;;
58758;SDS011;46777;47.482;19.054;2023-02-15T08:21:50;36.65;;;32.42;;
58758;SDS011;46777;47.482;19.054;2023-02-15T08:24:35;39.03;;;32.83;;
58758;SDS011;46777;47.482;19.054;2023-02-15T08:27:21;38.30;;;32.63;;
58758;SDS011;46777;47.482;19.054;2023-02-15T08:30:10;37.97;;;33.88;;
58758;SDS011;46777;47.482;19.054;2023-02-15T08:32:55;35.95;;;32.13;;
58758;SDS011;46777;47.482;19.054;2023-02-15T08:35:39;36.63;;;32.72;;
58758;SDS011;46777;47.482;19.054;2023-02-15T08:38:23;38.25;;;33.10;;
58758;SDS011;46777;47.482;19.054;2023-02-15T08:41:11;40.83;;;32.70;;
58758;SDS011;46777;47.482;19.054;2023-02-15T08:43:57;36.83;;;32.83;;
58758;SDS011;46777;47.482;19.054;2023-02-15T08:46:43;39.50;;;33.58;;
58758;SDS011;46777;47.482;19.054;2023-02-15T08:49:27;36.53;;;32.60;;
58758;SDS011;46777;47.482;19.054;2023-02-15T08:52:11;39.45;;;34.65;;
58758;SDS011;46777;47.482;19.054;2023-02-15T08:54:56;37.03;;;32.80;;
58758;SDS011;46777;47.482;19.054;2023-02-15T08:57:40;38.45;;;33.42;;
58758;SDS011;46777;47.482;19.054;2023-02-15T09:00:28;40.22;;;33.13;;
58758;SDS011;46777;47.482;19.054;2023-02-15T09:03:13;41.95;;;34.35;;
58758;SDS011;46777;47.482;19.054;2023-02-15T09:05:58;38.03;;;33.75;;
58758;SDS011;46777;47.482;19.054;2023-02-15T09:08:42;37.90;;;33.28;;
58758;SDS011;46777;47.482;19.054;2023-02-15T09:11:27;38.83;;;32.60;;
58758;SDS011;46777;47.482;19.054;2023-02-15T09:14:16;42.03;;;35.38;;
58758;SDS011;46777;47.482;19.054;2023-02-15T09:17:01;39.58;;;34.85;;
58758;SDS011;46777;47.482;19.054;2023-02-15T09:19:45;38.22;;;34.22;;
58758;SDS011;46777;47.482;19.054;2023-02-15T09:22:29;39.47;;;34.33;;
58758;SDS011;46777;47.482;19.054;2023-02-15T09:25:15;41.22;;;35.30;;
58758;SDS011;46777;47.482;19.054;2023-02-15T09:27:59;41.70;;;35.38;;
58758;SDS011;46777;47.482;19.054;2023-02-15T09:30:43;41.45;;;36.53;;
58758;SDS011;46777;47.482;19.054;2023-02-15T09:33:27;37.88;;;33.78;;
58758;SDS011;46777;47.482;19.054;2023-02-15T09:36:17;38.03;;;33.65;;
58758;SDS011;46777;47.482;19.054;2023-02-15T09:39:23;39.78;;;35.33;;
58758;SDS011;46777;47.482;19.054;2023-02-15T09:45:11;37.35;;;33.45;;
58758;SDS011;46777;47.482;19.054;2023-02-15T09:53:41;36.03;;;32.30;;
58758;SDS011;46777;47.482;19.054;2023-02-15T09:56:32;34.92;;;31.30;;
58758;SDS011;46777;47.482;19.054;2023-02-15T09:59:31;34.42;;;30.58;;
58758;SDS011;46777;47.482;19.054;2023-02-15T10:02:27;34.28;;;30.73;;
58758;SDS011;46777;47.482;19.054;2023-02-15T10:05:38;34.20;;;30.45;;
58758;SDS011;46777;47.482;19.054;2023-02-15T10:11:17;37.72;;;33.08;;
58758;SDS011;46777;47.482;19.054;2023-02-15T10:25:46;38.97;;;34.97;;
58758;SDS011;46777;47.482;19.054;2023-02-15T10:28:48;41.03;;;36.58;;
58758;SDS011;46777;47.482;19.054;2023-02-15T10:31:46;38.70;;;34.80;;
58758;SDS011;46777;47.482;19.054;2023-02-15T10:55:09;35.10;;;31.63;;
58758;SDS011;46777;47.482;19.054;2023-02-15T11:06:29;30.77;;;27.88;;
58758;SDS011;46777;47.482;19.054;2023-02-15T11:09:14;32.83;;;29.73;;
58758;SDS011;46777;47.482;19.054;2023-02-15T11:12:02;35.60;;;32.20;;
58758;SDS011;46777;47.482;19.054;2023-02-15T11:17:58;36.63;;;32.95;;
58758;SDS011;46777;47.482;19.054;2023-02-15T11:23:29;36.22;;;32.75;;
58758;SDS011;46777;47.482;19.054;2023-02-15T11:26:15;35.22;;;31.58;;
58758;SDS011;46777;47.482;19.054;2023-02-15T11:31:46;36.85;;;33.45;;
58758;SDS011;46777;47.482;19.054;2023-02-15T11:37:17;36.95;;;33.08;;
58758;SDS011;46777;47.482;19.054;2023-02-15T11:40:02;36.47;;;33.13;;
58758;SDS011;46777;47.482;19.054;2023-02-15T11:42:48;37.40;;;33.80;;
58758;SDS011;46777;47.482;19.054;2023-02-15T11:45:34;36.45;;;32.63;;
58758;SDS011;46777;47.482;19.054;2023-02-15T11:48:19;36.08;;;32.50;;
58758;SDS011;46777;47.482;19.054;2023-02-15T11:51:03;34.35;;;30.90;;
58758;SDS011;46777;47.482;19.054;2023-02-15T11:53:47;34.95;;;31.45;;
58758;SDS011;46777;47.482;19.054;2023-02-15T11:56:32;34.47;;;31.35;;
58758;SDS011;46777;47.482;19.054;2023-02-15T11:59:18;33.20;;;30.17;;
58758;SDS011;46777;47.482;19.054;2023-02-15T12:02:16;33.05;;;29.95;;
58758;SDS011;46777;47.482;19.054;2023-02-15T12:05:03;32.88;;;29.50;;
58758;SDS011;46777;47.482;19.054;2023-02-15T12:07:51;32.38;;;29.38;;
58758;SDS011;46777;47.482;19.054;2023-02-15T12:10:38;32.58;;;29.67;;
58758;SDS011;46777;47.482;19.054;2023-02-15T12:13:24;32.60;;;29.33;;
58758;SDS011;46777;47.482;19.054;2023-02-15T12:16:09;32.95;;;29.75;;
58758;SDS011;46777;47.482;19.054;2023-02-15T12:18:56;32.92;;;29.92;;
58758;SDS011;46777;47.482;19.054;2023-02-15T12:21:41;32.90;;;29.80;;
58758;SDS011;46777;47.482;19.054;2023-02-15T12:24:28;33.15;;;30.05;;
58758;SDS011;46777;47.482;19.054;2023-02-15T12:27:17;30.92;;;28.13;;
58758;SDS011;46777;47.482;19.054;2023-02-15T12:30:06;31.13;;;28.42;;
58758;SDS011;46777;47.482;19.054;2023-02-15T12:32:56;31.98;;;29.13;;
58758;SDS011;46777;47.482;19.054;2023-02-15T12:35:41;31.20;;;28.33;;
58758;SDS011;46777;47.482;19.054;2023-02-15T12:38:27;30.75;;;28.05;;
58758;SDS011;46777;47.482;19.054;2023-02-15T12:41:22;29.88;;;27.08;;
58758;SDS011;46777;47.482;19.054;2023-02-15T12:44:22;31.05;;;28.40;;
58758;SDS011;46777;47.482;19.054;2023-02-15T12:52:50;28.48;;;26.17;;
58758;SDS011;46777;47.482;19.054;2023-02-15T12:55:35;29.65;;;27.17;;
58758;SDS011;46777;47.482;19.054;2023-02-15T12:58:20;28.05;;;25.75;;
58758;SDS011;46777;47.482;19.054;2023-02-15T13:01:17;25.63;;;23.45;;
58758;SDS011;46777;47.482;19.054;2023-02-15T13:04:05;25.83;;;23.63;;
58758;SDS011;46777;47.482;19.054;2023-02-15T13:06:50;26.50;;;24.27;;
58758;SDS011;46777;47.482;19.054;2023-02-15T13:09:38;25.33;;;23.23;;
58758;SDS011;46777;47.482;19.054;2023-02-15T13:12:24;27.52;;;25.23;;
58758;SDS011;46777;47.482;19.054;2023-02-15T13:15:22;26.60;;;24.50;;
58758;SDS011;46777;47.482;19.054;2023-02-15T13:18:15;27.10;;;25.00;;
58758;SDS011;46777;47.482;19.054;2023-02-15T13:21:04;25.58;;;23.50;;
58758;SDS011;46777;47.482;19.054;2023-02-15T13:23:55;26.23;;;24.10;;
58758;SDS011;46777;47.482;19.054;2023-02-15T13:26:41;26.50;;;24.30;;
58758;SDS011;46777;47.482;19.054;2023-02-15T13:29:30;27.20;;;25.10;;
58758;SDS011;46777;47.482;19.054;2023-02-15T13:32:22;26.63;;;24.38;;
58758;SDS011;46777;47.482;19.054;2023-02-15T13:35:15;26.13;;;23.98;;
58758;SDS011;46777;47.482;19.054;2023-02-15T13:38:06;27.67;;;25.45;;
58758;SDS011;46777;47.482;19.054;2023-02-15T13:41:04;27.85;;;25.45;;
58758;SDS011;46777;47.482;19.054;2023-02-15T13:43:56;27.63;;;25.15;;
58758;SDS011;46777;47.482;19.054;2023-02-15T13:46:57;25.73;;;23.73;;
58758;SDS011;46777;47.482;19.054;2023-02-15T13:52:48;24.58;;;22.67;;
58758;SDS011;46777;47.482;19.054;2023-02-15T13:55:40;27.00;;;24.75;;
58758;SDS011;46777;47.482;19.054;2023-02-15T13:58:50;28.08;;;25.88;;
58758;SDS011;46777;47.482;19.054;2023-02-15T14:12:58;24.17;;;22.25;;
58758;SDS011;46777;47.482;19.054;2023-02-15T14:15:49;25.10;;;22.75;;
58758;SDS011;46777;47.482;19.054;2023-02-15T14:21:32;24.98;;;22.88;;
58758;SDS011;46777;47.482;19.054;2023-02-15T14:24:27;26.20;;;24.00;;
58758;SDS011;46777;47.482;19.054;2023-02-15T14:29:57;27.52;;;25.33;;
58758;SDS011;46777;47.482;19.054;2023-02-15T14:32:45;27.85;;;25.65;;
58758;SDS011;46777;47.482;19.054;2023-02-15T14:35:30;27.20;;;25.10;;
58758;SDS011;46777;47.482;19.054;2023-02-15T14:38:37;27.88;;;25.45;;
58758;SDS011;46777;47.482;19.054;2023-02-15T14:41:26;27.48;;;25.00;;
58758;SDS011;46777;47.482;19.054;2023-02-15T14:47:19;27.77;;;25.50;;
58758;SDS011;46777;47.482;19.054;2023-02-15T14:56:29;30.48;;;27.77;;
58758;SDS011;46777;47.482;19.054;2023-02-15T14:59:15;30.50;;;27.70;;
58758;SDS011;46777;47.482;19.054;2023-02-15T15:02:09;30.30;;;27.40;;
58758;SDS011;46777;47.482;19.054;2023-02-15T15:05:01;31.40;;;28.17;;
58758;SDS011;46777;47.482;19.054;2023-02-15T15:07:47;30.27;;;27.13;;
58758;SDS011;46777;47.482;19.054;2023-02-15T15:10:50;31.23;;;28.20;;
58758;SDS011;46777;47.482;19.054;2023-02-15T15:13:35;30.25;;;27.23;;
58758;SDS011;46777;47.482;19.054;2023-02-15T15:19:09;31.60;;;28.40;;
58758;SDS011;46777;47.482;19.054;2023-02-15T15:21:55;32.10;;;28.88;;
58758;SDS011;46777;47.482;19.054;2023-02-15T15:27:44;33.03;;;29.63;;
58758;SDS011;46777;47.482;19.054;2023-02-15T15:33:20;32.40;;;28.98;;
58758;SDS011;46777;47.482;19.054;2023-02-15T15:47:58;32.10;;;28.80;;
58758;SDS011;46777;47.482;19.054;2023-02-15T15:50:46;33.58;;;30.10;;
58758;SDS011;46777;47.482;19.054;2023-02-15T15:53:31;32.10;;;28.83;;
58758;SDS011;46777;47.482;19.054;2023-02-15T15:56:18;33.30;;;29.70;;
58758;SDS011;46777;47.482;19.054;2023-02-15T15:59:07;31.55;;;28.17;;
58758;SDS011;46777;47.482;19.054;2023-02-15T16:01:56;32.55;;;29.05;;
58758;SDS011;46777;47.482;19.054;2023-02-15T16:04:47;32.50;;;28.50;;
58758;SDS011;46777;47.482;19.054;2023-02-15T16:07:32;33.85;;;30.02;;
58758;SDS011;46777;47.482;19.054;2023-02-15T16:13:04;34.60;;;29.65;;
58758;SDS011;46777;47.482;19.054;2023-02-15T16:15:52;33.28;;;28.25;;
58758;SDS011;46777;47.482;19.054;2023-02-15T16:18:37;31.52;;;28.20;;
58758;SDS011;46777;47.482;19.054;2023-02-15T16:21:30;33.65;;;28.58;;
58758;SDS011;46777;47.482;19.054;2023-02-15T16:27:07;33.67;;;30.08;;
58758;SDS011;46777;47.482;19.054;2023-02-15T16:29:53;31.45;;;28.05;;
58758;SDS011;46777;47.482;19.054;2023-02-15T16:32:37;34.58;;;29.83;;
58758;SDS011;46777;47.482;19.054;2023-02-15T16:35:22;35.00;;;31.20;;
58758;SDS011;46777;47.482;19.054;2023-02-15T16:38:10;33.33;;;29.73;;
58758;SDS011;46777;47.482;19.054;2023-02-15T16:40:57;34.80;;;30.90;;
58758;SDS011;46777;47.482;19.054;2023-02-15T16:43:42;36.42;;;31.23;;
58758;SDS011;46777;47.482;19.054;2023-02-15T16:46:31;34.10;;;30.35;;
58758;SDS011;46777;47.482;19.054;2023-02-15T16:49:21;34.05;;;30.33;;
58758;SDS011;46777;47.482;19.054;2023-02-15T16:52:05;34.70;;;30.58;;
58758;SDS011;46777;47.482;19.054;2023-02-15T16:54:53;34.67;;;30.85;;
58758;SDS011;46777;47.482;19.054;2023-02-15T16:57:38;39.72;;;33.00;;
58758;SDS011;46777;47.482;19.054;2023-02-15T17:00:27;40.00;;;32.72;;
58758;SDS011;46777;47.482;19.054;2023-02-15T17:06:00;39.22;;;33.47;;
58758;SDS011;46777;47.482;19.054;2023-02-15T17:08:44;41.25;;;32.80;;
58758;SDS011;46777;47.482;19.054;2023-02-15T17:11:36;37.03;;;31.55;;
58758;SDS011;46777;47.482;19.054;2023-02-15T17:14:21;38.17;;;32.78;;
58758;SDS011;46777;47.482;19.054;2023-02-15T17:17:14;37.00;;;31.98;;
58758;SDS011;46777;47.482;19.054;2023-02-15T17:19:59;37.53;;;30.40;;
58758;SDS011;46777;47.482;19.054;2023-02-15T17:22:43;39.28;;;33.08;;
58758;SDS011;46777;47.482;19.054;2023-02-15T17:25:33;38.38;;;32.28;;
58758;SDS011;46777;47.482;19.054;2023-02-15T17:28:20;39.30;;;33.00;;
58758;SDS011;46777;47.482;19.054;2023-02-15T17:31:06;40.80;;;33.13;;
58758;SDS011;46777;47.482;19.054;2023-02-15T17:33:50;41.25;;;34.50;;
58758;SDS011;46777;47.482;19.054;2023-02-15T17:36:38;38.67;;;32.65;;
58758;SDS011;46777;47.482;19.054;2023-02-15T17:39:40;40.17;;;32.80;;
58758;SDS011;46777;47.482;19.054;2023-02-15T17:42:24;40.20;;;34.55;;
58758;SDS011;46777;47.482;19.054;2023-02-15T17:45:09;41.08;;;35.40;;
58758;SDS011;46777;47.482;19.054;2023-02-15T17:47:53;40.05;;;33.78;;
58758;SDS011;46777;47.482;19.054;2023-02-15T17:50:38;39.15;;;34.28;;
58758;SDS011;46777;47.482;19.054;2023-02-15T17:53:22;42.38;;;34.83;;
58758;SDS011;46777;47.482;19.054;2023-02-15T17:56:07;44.63;;;34.72;;
58758;SDS011;46777;47.482;19.054;2023-02-15T17:58:54;43.60;;;34.63;;
58758;SDS011;46777;47.482;19.054;2023-02-15T18:01:43;38.03;;;33.65;;
58758;SDS011;46777;47.482;19.054;2023-02-15T18:04:47;43.55;;;34.63;;
58758;SDS011;46777;47.482;19.054;2023-02-15T18:07:50;43.20;;;36.08;;
58758;SDS011;46777;47.482;19.054;2023-02-15T18:10:54;41.72;;;34.70;;
58758;SDS011;46777;47.482;19.054;2023-02-15T18:13:57;44.85;;;35.80;;
58758;SDS011;46777;47.482;19.054;2023-02-15T18:16:44;42.63;;;37.75;;
58758;SDS011;46777;47.482;19.054;2023-02-15T18:19:29;45.45;;;36.33;;
58758;SDS011;46777;47.482;19.054;2023-02-15T18:22:17;41.78;;;35.45;;
58758;SDS011;46777;47.482;19.054;2023-02-15T18:25:01;40.92;;;35.63;;
58758;SDS011;46777;47.482;19.054;2023-02-15T18:27:46;41.58;;;35.22;;